Terminal Aerodrome Forecast
Issued by NWS

Home | Current Version | Previous Version | Text Only | Print | Product List | Glossary On
Versions: 1 2 3 4 5 6 7 8 9 10 11 12 13 14 15 16 17 18 19 20 21 22 23 24 25 26 27 28 29 30
000
FTUS45 KGJT 061138
TAFEGE
TAF
KEGE 061138Z 0612/0712 09004KT P6SM -SHRA SCT015 SCT030 OVC050
     FM061600 VRB03KT P6SM VCSH SCT035 BKN060
     FM062000 25010KT P6SM -TSRA BKN050CB
     FM070200 11003KT P6SM SCT020 BKN070
      AMD LTD TO CLD VIS AND WIND TIL 061300=

USA.gov is the U.S. government's official web portal to all federal, state and local government web resources and services.